Time;durP1;ratioP1;P1;durP2;ratioP2;P2;SDS_P1;SDS_P2;PMS_P1;PMS_P2;Temp;Humidity;BMP_temperature;BMP_pressure;BME280_temperature;BME280_humidity;BME280_pressure;Samples;Min_cycle;Max_cycle;Signal;HPM_P1;HPM_P2
2022/07/07 00:00:47;;;;;;;5.22;2.25;;;27.70;96.70;;;;;;4871625;29;20112;-76
2022/07/07 00:03:15;;;;;;;4.20;2.20;;;27.60;96.70;;;;;;4874679;29;20499;-77
2022/07/07 00:05:43;;;;;;;4.90;2.65;;;27.60;96.70;;;;;;4871663;29;20069;-76
2022/07/07 00:08:11;;;;;;;4.55;2.55;;;27.70;96.70;;;;;;4869918;29;20504;-77
2022/07/07 00:10:41;;;;;;;6.82;2.80;;;27.70;96.70;;;;;;4868895;29;20092;-76
2022/07/07 00:13:09;;;;;;;5.30;2.88;;;27.70;96.70;;;;;;4855386;29;20056;-76
2022/07/07 00:15:37;;;;;;;5.03;3.00;;;27.80;96.70;;;;;;4856448;29;20053;-76
2022/07/07 00:18:05;;;;;;;4.07;2.72;;;27.80;96.70;;;;;;4872042;29;20049;-76
2022/07/07 00:20:33;;;;;;;6.43;3.20;;;27.70;96.70;;;;;;4871665;29;20061;-75
2022/07/07 00:23:01;;;;;;;5.72;3.75;;;27.70;96.70;;;;;;4871835;29;20049;-76
2022/07/07 00:25:29;;;;;;;6.22;4.00;;;27.70;96.70;;;;;;4871703;29;20063;-76
2022/07/07 00:28:01;;;;;;;7.40;3.50;;;27.70;96.70;;;;;;4883305;29;20081;-76
2022/07/07 00:30:29;;;;;;;7.20;3.28;;;27.70;96.70;;;;;;4885834;29;20512;-76
2022/07/07 00:32:57;;;;;;;6.55;3.40;;;27.70;96.70;;;;;;4870966;29;20079;-76
2022/07/07 00:35:25;;;;;;;5.57;3.15;;;27.80;96.70;;;;;;4870194;29;20049;-75
2022/07/07 00:37:53;;;;;;;14.00;5.13;;;27.70;96.70;;;;;;4868136;29;21095;-76
2022/07/07 00:40:22;;;;;;;8.32;3.15;;;27.60;96.70;;;;;;4869914;29;20049;-76
2022/07/07 00:42:53;;;;;;;5.18;2.92;;;27.40;96.70;;;;;;4870496;29;20067;-76
2022/07/07 00:45:22;;;;;;;5.40;3.40;;;27.30;96.70;;;;;;4871767;29;20113;-77
2022/07/07 00:47:50;;;;;;;5.55;2.90;;;27.40;96.70;;;;;;4870283;29;20048;-76
2022/07/07 00:50:19;;;;;;;7.57;3.60;;;27.40;96.70;;;;;;4869761;29;20094;-76
2022/07/07 00:52:47;;;;;;;8.15;3.42;;;27.30;96.70;;;;;;4886247;29;20548;-75
2022/07/07 00:55:15;;;;;;;6.20;3.40;;;27.20;96.70;;;;;;4869560;29;20049;-75
2022/07/07 00:57:43;;;;;;;6.90;3.25;;;27.20;96.70;;;;;;4871735;29;20048;-76
2022/07/07 01:00:14;;;;;;;6.00;2.75;;;27.30;96.70;;;;;;4869320;29;20783;-75
2022/07/07 01:02:43;;;;;;;5.45;3.00;;;27.30;96.70;;;;;;4870621;29;20505;-76
2022/07/07 01:05:11;;;;;;;4.72;2.78;;;27.30;96.70;;;;;;4886022;29;20060;-77
2022/07/07 01:07:39;;;;;;;4.35;2.35;;;27.30;96.70;;;;;;4870744;29;20295;-77
2022/07/07 01:10:09;;;;;;;7.13;2.85;;;27.30;96.70;;;;;;4869731;29;20302;-77
2022/07/07 01:13:04;;;;;;;6.60;2.20;;;27.40;96.70;;;;;;4871477;29;20056;-78
2022/07/07 01:15:32;;;;;;;5.45;2.65;;;27.30;96.70;;;;;;4882872;29;20123;-77
2022/07/07 01:18:01;;;;;;;5.57;2.80;;;27.10;96.70;;;;;;4869280;29;20041;-77
2022/07/07 01:20:30;;;;;;;5.45;2.50;;;27.10;96.70;;;;;;4869237;29;20745;-77
2022/07/07 01:22:59;;;;;;;6.72;2.65;;;27.10;96.70;;;;;;4868623;29;20144;-77
2022/07/07 01:25:27;;;;;;;4.65;2.50;;;27.10;96.70;;;;;;4874207;29;20742;-77
2022/07/07 01:27:55;;;;;;;5.47;2.20;;;27.20;96.70;;;;;;4869520;29;20095;-78
2022/07/07 01:30:23;;;;;;;5.63;2.28;;;27.10;96.70;;;;;;4865490;29;20060;-78
2022/07/07 01:32:53;;;;;;;4.45;2.13;;;27.10;96.70;;;;;;4871174;29;20060;-77
2022/07/07 01:35:23;;;;;;;5.20;2.30;;;27.10;96.70;;;;;;4870189;29;20075;-77
2022/07/07 01:37:51;;;;;;;3.78;2.40;;;27.10;96.70;;;;;;4866628;29;20604;-77
2022/07/07 01:40:20;;;;;;;6.55;2.25;;;27.00;96.70;;;;;;4869763;29;20616;-77
2022/07/07 01:42:48;;;;;;;4.60;2.00;;;26.90;96.70;;;;;;4869105;29;20143;-78
2022/07/07 01:45:16;;;;;;;3.88;2.13;;;26.70;96.70;;;;;;4874293;29;20052;-78
2022/07/07 01:47:44;;;;;;;3.97;2.10;;;26.60;96.70;;;;;;4870364;29;20136;-78
2022/07/07 01:50:12;;;;;;;6.13;2.42;;;26.60;96.70;;;;;;4870648;29;20492;-77
2022/07/07 01:52:40;;;;;;;4.72;2.30;;;26.70;96.70;;;;;;4870357;29;20557;-77
2022/07/07 01:55:08;;;;;;;5.60;3.22;;;26.60;96.70;;;;;;4870852;29;20057;-77
2022/07/07 01:57:38;;;;;;;4.05;3.35;;;26.50;96.70;;;;;;4868864;29;20464;-77
2022/07/07 02:00:07;;;;;;;6.68;3.17;;;26.40;96.70;;;;;;4871282;29;20049;-77
2022/07/07 02:02:35;;;;;;;5.28;3.03;;;26.50;96.70;;;;;;4869416;29;20105;-76
2022/07/07 02:05:04;;;;;;;4.38;2.92;;;26.50;96.70;;;;;;4869033;29;20049;-77
2022/07/07 02:07:34;;;;;;;8.13;2.97;;;26.30;96.70;;;;;;4869140;29;20518;-77
2022/07/07 02:10:03;;;;;;;4.60;2.35;;;26.20;96.70;;;;;;4870351;29;20073;-76
2022/07/07 02:12:31;;;;;;;6.88;3.10;;;26.20;96.70;;;;;;4868535;29;20079;-77
2022/07/07 02:15:01;;;;;;;4.28;2.55;;;26.00;96.70;;;;;;4870732;29;20052;-76
2022/07/07 02:17:29;;;;;;;5.50;2.75;;;26.00;96.70;;;;;;4869548;29;20049;-76
2022/07/07 02:19:56;;;;;;;3.40;3.03;;;26.00;96.70;;;;;;4870579;29;20401;-77
2022/07/07 02:22:24;;;;;;;6.10;2.92;;;25.90;96.70;;;;;;4867996;29;20449;-76
2022/07/07 02:24:52;;;;;;;6.38;2.70;;;25.80;96.70;;;;;;4866643;29;20049;-76
2022/07/07 02:27:20;;;;;;;4.50;2.72;;;25.80;96.70;;;;;;4869806;29;20119;-77
2022/07/07 02:29:48;;;;;;;4.70;2.88;;;25.90;96.70;;;;;;4869945;29;20046;-77
2022/07/07 02:32:17;;;;;;;5.78;2.03;;;25.80;96.70;;;;;;4872998;29;20072;-76
2022/07/07 02:34:45;;;;;;;5.88;2.90;;;25.80;96.70;;;;;;4873827;29;20137;-77
2022/07/07 02:37:13;;;;;;;4.63;2.70;;;25.70;96.70;;;;;;4872532;29;20119;-77
2022/07/07 02:39:41;;;;;;;5.93;2.80;;;25.70;96.70;;;;;;4873631;29;20052;-77
2022/07/07 02:42:08;;;;;;;4.78;2.25;;;25.80;96.70;;;;;;4873352;29;20053;-77
2022/07/07 02:44:36;;;;;;;5.75;2.50;;;26.00;96.70;;;;;;4874146;29;20079;-77
2022/07/07 02:47:04;;;;;;;3.92;2.33;;;26.10;96.70;;;;;;4875059;29;20048;-77
2022/07/07 02:49:33;;;;;;;3.92;2.83;;;26.10;96.70;;;;;;4873124;29;20124;-76
2022/07/07 02:52:03;;;;;;;2.50;2.30;;;26.10;96.70;;;;;;4872469;29;20105;-77
2022/07/07 02:54:31;;;;;;;3.70;2.53;;;26.10;96.70;;;;;;4856931;29;20178;-76
2022/07/07 02:56:59;;;;;;;10.10;2.67;;;26.10;96.70;;;;;;4871733;29;20140;-76
2022/07/07 02:59:27;;;;;;;4.55;2.45;;;26.00;96.70;;;;;;4871807;29;20136;-76
2022/07/07 03:01:54;;;;;;;3.20;2.50;;;26.00;96.70;;;;;;4877224;29;20055;-76
2022/07/07 03:04:22;;;;;;;3.42;2.50;;;26.20;96.70;;;;;;4872325;29;20049;-76
2022/07/07 03:06:52;;;;;;;4.93;2.72;;;26.20;96.70;;;;;;4873531;29;20508;-77
2022/07/07 03:09:19;;;;;;;3.28;2.40;;;26.20;96.70;;;;;;4871917;29;20041;-77
2022/07/07 03:11:47;;;;;;;4.63;2.47;;;26.10;96.70;;;;;;4872893;29;20056;-77
2022/07/07 03:14:15;;;;;;;4.15;2.50;;;26.20;96.70;;;;;;4872293;29;20048;-76
2022/07/07 03:16:44;;;;;;;5.72;2.88;;;26.10;96.70;;;;;;4873486;29;20087;-77
2022/07/07 03:19:12;;;;;;;4.43;2.50;;;26.00;96.70;;;;;;4871617;29;20056;-77
2022/07/07 03:21:39;;;;;;;4.20;2.28;;;25.80;96.70;;;;;;4872480;29;20103;-78
2022/07/07 03:24:09;;;;;;;4.82;2.58;;;25.80;96.70;;;;;;4871602;29;20049;-77
2022/07/07 03:26:37;;;;;;;4.07;2.20;;;25.80;96.70;;;;;;4870650;29;20060;-77
2022/07/07 03:29:05;;;;;;;3.58;2.50;;;25.80;96.70;;;;;;4873439;29;20104;-77
2022/07/07 03:31:33;;;;;;;3.30;2.33;;;25.80;96.70;;;;;;4873120;29;20060;-76
2022/07/07 03:34:01;;;;;;;3.20;2.25;;;25.90;96.70;;;;;;4886748;29;20045;-76
2022/07/07 03:36:29;;;;;;;4.35;2.40;;;26.00;96.70;;;;;;4856137;29;20052;-76
2022/07/07 03:38:57;;;;;;;4.38;2.85;;;26.00;96.70;;;;;;4885810;29;20041;-77
2022/07/07 03:41:26;;;;;;;3.25;2.22;;;26.00;96.70;;;;;;4854410;29;20502;-77
2022/07/07 03:43:54;;;;;;;2.42;2.22;;;25.80;96.70;;;;;;4871803;29;20404;-77
2022/07/07 03:46:22;;;;;;;6.03;2.40;;;25.60;96.70;;;;;;4873014;29;20053;-76
2022/07/07 03:48:50;;;;;;;3.97;2.40;;;25.60;96.70;;;;;;4872334;29;20048;-77
2022/07/07 03:51:18;;;;;;;3.67;2.15;;;25.60;96.70;;;;;;4873037;29;20048;-77
2022/07/07 03:53:46;;;;;;;2.92;2.63;;;25.60;96.70;;;;;;4872062;29;20155;-77
2022/07/07 03:56:14;;;;;;;4.88;2.38;;;25.70;96.70;;;;;;4871097;29;20049;-77
2022/07/07 03:58:44;;;;;;;2.80;2.13;;;25.60;96.70;;;;;;4875346;29;20105;-77
2022/07/07 04:01:12;;;;;;;3.50;2.53;;;25.70;96.70;;;;;;4872010;29;20068;-77
2022/07/07 04:03:40;;;;;;;3.88;2.30;;;25.60;96.70;;;;;;4868981;29;20079;-76
2022/07/07 04:06:08;;;;;;;4.57;2.42;;;25.60;96.70;;;;;;4872228;29;20048;-77
2022/07/07 04:08:36;;;;;;;3.38;2.28;;;25.60;96.70;;;;;;4885751;29;20392;-77
2022/07/07 04:11:04;;;;;;;6.60;3.08;;;25.60;96.70;;;;;;4861407;29;20045;-76
2022/07/07 04:13:32;;;;;;;6.43;3.53;;;25.60;96.70;;;;;;4886408;29;20053;-77
2022/07/07 04:16:01;;;;;;;7.28;4.80;;;25.70;96.70;;;;;;4871418;29;20115;-77
2022/07/07 04:18:29;;;;;;;7.22;4.15;;;25.80;96.70;;;;;;4870215;29;20060;-76
2022/07/07 04:20:57;;;;;;;4.07;3.65;;;25.70;96.70;;;;;;4867801;29;20045;-76
2022/07/07 04:23:25;;;;;;;6.43;3.47;;;25.70;96.70;;;;;;4871643;29;20049;-79
2022/07/07 04:25:54;;;;;;;7.35;3.00;;;25.60;96.70;;;;;;4869981;29;20195;-76
2022/07/07 04:28:22;;;;;;;5.13;2.78;;;25.60;96.70;;;;;;4869448;29;20136;-77
2022/07/07 04:30:50;;;;;;;4.68;2.35;;;25.70;96.70;;;;;;4854453;29;20572;-77
2022/07/07 04:33:19;;;;;;;4.03;2.40;;;25.70;96.70;;;;;;4871205;29;20481;-77
2022/07/07 04:35:47;;;;;;;4.45;2.30;;;25.70;96.70;;;;;;4869074;29;20052;-77
2022/07/07 04:38:16;;;;;;;2.85;2.20;;;25.80;96.70;;;;;;4883706;29;20132;-77
2022/07/07 04:40:43;;;;;;;3.92;2.28;;;25.70;96.70;;;;;;4869026;29;20116;-78
2022/07/07 04:43:12;;;;;;;4.68;2.70;;;25.60;96.70;;;;;;4856917;29;20053;-77
2022/07/07 04:45:40;;;;;;;4.20;2.30;;;25.50;96.70;;;;;;4870102;29;20057;-77
2022/07/07 04:48:08;;;;;;;4.60;2.28;;;25.60;96.70;;;;;;4871295;29;20049;-77
2022/07/07 04:50:38;;;;;;;10.55;3.10;;;25.60;96.70;;;;;;4869893;29;20045;-76
2022/07/07 04:53:06;;;;;;;6.78;3.40;;;25.60;96.70;;;;;;4871762;29;20072;-76
2022/07/07 04:55:34;;;;;;;7.07;3.85;;;25.70;96.70;;;;;;4869714;29;20203;-76
2022/07/07 04:58:02;;;;;;;5.93;3.30;;;25.80;96.70;;;;;;4870556;29;20053;-77
2022/07/07 05:00:30;;;;;;;8.05;3.85;;;25.90;96.70;;;;;;4867542;29;20116;-77
2022/07/07 05:02:58;;;;;;;7.22;3.15;;;25.70;96.70;;;;;;4871024;29;20047;-76
2022/07/07 05:05:26;;;;;;;9.35;4.07;;;25.70;96.70;;;;;;4870927;29;20053;-76
2022/07/07 05:07:56;;;;;;;7.50;3.38;;;25.70;96.70;;;;;;4869969;29;20572;-77
2022/07/07 05:10:25;;;;;;;9.13;3.72;;;25.80;96.70;;;;;;4869270;29;20068;-76
2022/07/07 05:12:53;;;;;;;8.70;3.90;;;25.80;96.70;;;;;;4870051;29;20439;-76
2022/07/07 05:15:21;;;;;;;9.50;3.60;;;25.80;96.70;;;;;;4870235;29;20045;-76
2022/07/07 05:17:49;;;;;;;6.13;3.33;;;25.70;96.70;;;;;;4871431;29;20109;-77
2022/07/07 05:20:26;;;;;;;9.50;3.70;;;25.80;96.70;;;;;;4869810;29;20113;-77
2022/07/07 05:22:57;;;;;;;6.88;3.53;;;25.80;96.70;;;;;;4872302;29;20056;-76
2022/07/07 05:25:25;;;;;;;8.60;3.50;;;25.90;96.70;;;;;;4872147;29;20560;-77
2022/07/07 05:27:53;;;;;;;9.32;4.18;;;25.90;96.70;;;;;;4869280;29;20127;-77
2022/07/07 05:30:21;;;;;;;6.57;3.90;;;26.10;96.70;;;;;;4870306;29;20053;-77
2022/07/07 05:32:49;;;;;;;6.32;3.20;;;26.30;96.70;;;;;;4871506;29;20045;-77
2022/07/07 05:35:18;;;;;;;6.10;3.40;;;26.40;96.70;;;;;;4873713;29;20049;-78
2022/07/07 05:37:46;;;;;;;11.10;3.88;;;26.50;96.70;;;;;;4866433;29;20411;-77
2022/07/07 05:40:16;;;;;;;12.70;4.00;;;26.40;96.70;;;;;;4868146;29;20713;-78
2022/07/07 05:42:44;;;;;;;8.68;4.03;;;26.40;96.70;;;;;;4868862;29;20472;-78
2022/07/07 05:45:19;;;;;;;10.65;3.90;;;26.30;96.70;;;;;;4871925;29;20072;-77
2022/07/07 05:47:47;;;;;;;8.57;4.00;;;26.40;96.70;;;;;;4870371;29;20060;-78
2022/07/07 05:50:15;;;;;;;9.45;3.55;;;26.30;96.70;;;;;;4874882;29;20237;-78
2022/07/07 05:52:43;;;;;;;26.25;4.32;;;26.30;96.70;;;;;;4869117;29;20045;-77
2022/07/07 05:55:11;;;;;;;7.70;3.92;;;26.40;96.70;;;;;;4866009;29;20046;-78
2022/07/07 05:57:41;;;;;;;4.60;3.40;;;26.50;96.70;;;;;;4853553;29;20095;-77
2022/07/07 06:00:10;;;;;;;6.22;3.60;;;26.40;96.70;;;;;;4883610;29;20057;-79
2022/07/07 06:02:40;;;;;;;9.75;4.20;;;26.50;96.70;;;;;;4870277;29;20047;-78
2022/07/07 06:05:09;;;;;;;8.85;4.50;;;26.60;96.70;;;;;;4870898;29;20073;-78
2022/07/07 06:07:37;;;;;;;7.97;3.53;;;26.70;96.70;;;;;;4868621;29;20582;-79
2022/07/07 06:10:07;;;;;;;5.47;3.75;;;26.80;96.70;;;;;;4870237;29;20576;-76
2022/07/07 06:12:35;;;;;;;7.35;3.70;;;26.70;96.70;;;;;;4885811;29;20068;-77
2022/07/07 06:15:05;;;;;;;7.95;3.50;;;26.70;96.70;;;;;;4855005;29;20093;-79
2022/07/07 06:17:33;;;;;;;5.82;3.70;;;26.80;96.70;;;;;;4865314;29;20481;-79
2022/07/07 06:20:21;;;;;;;6.72;3.78;;;26.80;96.70;;;;;;4870699;29;20631;-79
2022/07/07 06:22:49;;;;;;;7.90;3.88;;;26.70;96.70;;;;;;4869055;29;20788;-80
2022/07/07 06:25:17;;;;;;;8.70;4.30;;;26.70;96.70;;;;;;4869656;29;20060;-80
2022/07/07 06:27:46;;;;;;;5.25;3.63;;;26.70;96.70;;;;;;4883778;29;20048;-78
2022/07/07 06:30:16;;;;;;;6.25;3.20;;;26.60;96.70;;;;;;4869531;29;20160;-80
2022/07/07 06:32:44;;;;;;;6.70;3.20;;;26.60;96.70;;;;;;4869162;29;20127;-79
2022/07/07 06:35:13;;;;;;;6.55;3.35;;;26.70;96.70;;;;;;4866113;29;20041;-80
2022/07/07 06:37:41;;;;;;;3.42;2.58;;;26.70;96.70;;;;;;4883043;29;20088;-80
2022/07/07 06:40:10;;;;;;;4.95;2.78;;;26.80;96.70;;;;;;4869717;29;20045;-79
2022/07/07 06:42:38;;;;;;;6.80;3.00;;;26.90;96.70;;;;;;4876010;29;20421;-80
2022/07/07 06:45:12;;;;;;;7.32;3.40;;;27.00;96.70;;;;;;4869767;29;20512;-79
2022/07/07 06:47:41;;;;;;;7.07;3.75;;;27.00;96.70;;;;;;4873468;29;20060;-79
2022/07/07 06:50:09;;;;;;;9.20;4.40;;;27.10;96.70;;;;;;4868278;29;20049;-79
2022/07/07 06:52:38;;;;;;;6.28;3.38;;;27.20;96.70;;;;;;4884685;29;20045;-77
2022/07/07 06:55:07;;;;;;;6.43;3.20;;;27.20;96.70;;;;;;4868277;29;20045;-77
2022/07/07 06:57:38;;;;;;;5.57;2.97;;;27.30;96.70;;;;;;4868540;29;20525;-78
2022/07/07 07:00:10;;;;;;;5.60;3.00;;;27.30;96.70;;;;;;4868468;29;20093;-77
2022/07/07 07:02:44;;;;;;;7.10;2.67;;;27.30;96.70;;;;;;4870175;29;20420;-77
2022/07/07 07:05:12;;;;;;;8.55;3.50;;;27.50;96.70;;;;;;4865323;29;20512;-78
2022/07/07 07:07:41;;;;;;;6.82;3.33;;;27.50;96.70;;;;;;4869781;29;20052;-77
2022/07/07 07:10:09;;;;;;;6.68;3.00;;;27.50;96.70;;;;;;4868820;29;20045;-77
2022/07/07 07:12:38;;;;;;;5.78;2.92;;;27.60;96.70;;;;;;4864747;29;20423;-76
2022/07/07 07:15:11;;;;;;;5.93;3.70;;;27.70;96.70;;;;;;4868074;29;20049;-75
2022/07/07 07:17:39;;;;;;;7.97;4.60;;;27.80;96.70;;;;;;4872275;29;20542;-76
2022/07/07 07:20:14;;;;;;;8.70;3.95;;;27.90;96.70;;;;;;4871465;29;20088;-76
2022/07/07 07:22:42;;;;;;;10.57;4.60;;;27.90;96.70;;;;;;4886103;29;20092;-76
2022/07/07 07:25:10;;;;;;;6.80;3.60;;;28.00;96.70;;;;;;4884579;29;20464;-77
2022/07/07 07:27:38;;;;;;;10.55;4.93;;;28.00;96.70;;;;;;4871985;29;20064;-77
2022/07/07 07:30:07;;;;;;;11.43;3.95;;;28.10;96.70;;;;;;4856454;29;20108;-78
2022/07/07 07:32:35;;;;;;;9.98;3.83;;;28.10;96.70;;;;;;4873077;29;20048;-77
2022/07/07 07:35:04;;;;;;;8.32;3.90;;;28.10;96.70;;;;;;4871147;29;20052;-78
2022/07/07 07:37:33;;;;;;;5.80;3.30;;;28.20;96.70;;;;;;4873117;29;20056;-78
2022/07/07 07:40:02;;;;;;;6.88;3.35;;;28.30;96.70;;;;;;4886531;29;20065;-77
2022/07/07 07:42:30;;;;;;;6.55;3.28;;;28.30;96.70;;;;;;4869554;29;20055;-78
2022/07/07 07:45:10;;;;;;;9.75;3.50;;;28.40;96.70;;;;;;4856337;29;20057;-79
2022/07/07 07:47:40;;;;;;;10.13;3.45;;;28.60;96.70;;;;;;4855899;29;20064;-80
2022/07/07 07:50:11;;;;;;;6.10;3.10;;;28.60;96.70;;;;;;4871965;29;20045;-80
2022/07/07 07:52:42;;;;;;;5.70;3.38;;;28.60;96.70;;;;;;4871694;29;20132;-80
2022/07/07 07:55:12;;;;;;;6.72;3.17;;;28.70;96.70;;;;;;4872059;29;20056;-80
2022/07/07 07:57:41;;;;;;;6.25;3.17;;;28.90;96.70;;;;;;4886968;29;20447;-80
2022/07/07 08:00:11;;;;;;;9.35;4.07;;;28.90;96.70;;;;;;4873272;29;20065;-79
2022/07/07 08:02:39;;;;;;;7.10;3.92;;;28.90;96.70;;;;;;4871491;29;20060;-79
2022/07/07 08:05:10;;;;;;;8.50;3.45;;;28.90;96.70;;;;;;4887305;29;20472;-79
2022/07/07 08:07:38;;;;;;;6.78;3.45;;;29.00;96.70;;;;;;4870809;29;20055;-79
2022/07/07 08:10:10;;;;;;;6.07;3.03;;;29.20;96.70;;;;;;4886649;29;20041;-78
2022/07/07 08:12:38;;;;;;;9.00;3.60;;;29.20;96.70;;;;;;4870507;29;20045;-78
2022/07/07 08:15:07;;;;;;;7.82;3.00;;;29.30;96.70;;;;;;4872757;29;20056;-79
2022/07/07 08:17:35;;;;;;;6.47;2.90;;;29.30;96.70;;;;;;4870474;29;20040;-78
2022/07/07 08:20:05;;;;;;;7.47;3.20;;;29.30;96.70;;;;;;4872430;29;20067;-79
2022/07/07 08:22:34;;;;;;;5.90;2.95;;;29.40;96.70;;;;;;4870919;29;20136;-80
2022/07/07 08:25:02;;;;;;;9.30;3.53;;;29.50;96.70;;;;;;4868904;29;20100;-80
2022/07/07 08:27:32;;;;;;;8.70;3.22;;;29.50;96.70;;;;;;4870274;29;20057;-79
2022/07/07 08:30:01;;;;;;;4.65;2.65;;;29.60;96.70;;;;;;4870862;29;20060;-79
2022/07/07 08:32:29;;;;;;;7.50;2.65;;;29.70;96.70;;;;;;4869642;29;20057;-79
2022/07/07 08:34:57;;;;;;;5.78;2.58;;;29.80;96.70;;;;;;4872502;29;20093;-79
2022/07/07 08:37:25;;;;;;;5.03;2.30;;;29.80;96.70;;;;;;4869721;29;20049;-79
2022/07/07 08:39:53;;;;;;;7.28;2.03;;;29.80;96.70;;;;;;4872584;29;20045;-79
2022/07/07 08:42:22;;;;;;;7.28;2.22;;;29.80;96.70;;;;;;4871644;29;20535;-79
2022/07/07 08:44:51;;;;;;;4.13;2.45;;;29.90;96.70;;;;;;4871998;29;20140;-80
2022/07/07 08:47:27;;;;;;;4.22;1.98;;;29.90;96.70;;;;;;4885604;29;20057;-80
2022/07/07 08:49:56;;;;;;;6.65;2.53;;;30.10;96.70;;;;;;4868198;29;20109;-80
2022/07/07 08:52:24;;;;;;;4.32;2.20;;;30.20;96.70;;;;;;4869760;29;20048;-78
2022/07/07 08:54:53;;;;;;;2.63;2.03;;;30.30;96.70;;;;;;4885605;29;20049;-79
2022/07/07 08:57:24;;;;;;;6.10;2.60;;;30.30;96.70;;;;;;4869245;29;20044;-78
2022/07/07 08:59:56;;;;;;;2.55;1.80;;;30.50;96.70;;;;;;4869761;29;20148;-79
2022/07/07 09:02:24;;;;;;;3.35;1.95;;;30.60;96.70;;;;;;4871880;29;20056;-78
2022/07/07 09:04:52;;;;;;;3.63;2.70;;;30.60;96.70;;;;;;4870814;29;20043;-78
2022/07/07 09:07:20;;;;;;;6.65;2.00;;;30.50;96.70;;;;;;4885728;29;20147;-79
2022/07/07 09:09:52;;;;;;;4.32;1.90;;;30.50;96.70;;;;;;4869984;29;20053;-79
2022/07/07 09:12:21;;;;;;;4.47;2.25;;;30.60;96.70;;;;;;4854581;29;20148;-80
2022/07/07 09:14:50;;;;;;;5.38;2.33;;;30.50;96.70;;;;;;4871080;29;20560;-76
2022/07/07 09:17:27;;;;;;;5.55;1.90;;;30.60;96.70;;;;;;4871993;29;20521;-77
2022/07/07 09:20:03;;;;;;;2.70;1.80;;;30.70;96.70;;;;;;4864390;29;20144;-77
2022/07/07 09:22:46;;;;;;;4.15;1.80;;;30.90;96.70;;;;;;4871833;29;20053;-77
2022/07/07 09:25:15;;;;;;;3.33;2.03;;;30.90;96.70;;;;;;4872698;29;20049;-77
2022/07/07 09:27:55;;;;;;;3.10;1.90;;;31.00;96.70;;;;;;4872078;29;20076;-77
2022/07/07 09:30:28;;;;;;;3.78;1.80;;;30.90;96.70;;;;;;4870818;29;20535;-77
2022/07/07 09:32:59;;;;;;;4.10;1.77;;;30.90;96.70;;;;;;4871384;29;20049;-76
2022/07/07 09:38:22;;;;;;;8.05;1.80;;;31.00;96.30;;;;;;4868506;29;20052;-77
2022/07/07 09:40:52;;;;;;;4.43;1.70;;;31.10;95.80;;;;;;4868117;29;20049;-77
2022/07/07 09:43:22;;;;;;;5.25;2.00;;;31.20;96.70;;;;;;4884893;29;20329;-77
2022/07/07 09:46:06;;;;;;;2.35;1.60;;;31.30;95.70;;;;;;4885111;29;20048;-77
2022/07/07 09:48:38;;;;;;;4.13;1.67;;;31.30;96.00;;;;;;4869303;29;20060;-77
2022/07/07 09:51:11;;;;;;;1.85;1.63;;;31.50;95.50;;;;;;4869850;29;20112;-77
2022/07/07 09:53:55;;;;;;;3.60;1.70;;;31.60;93.50;;;;;;4878586;29;20057;-78
2022/07/07 09:56:25;;;;;;;2.15;1.52;;;31.70;94.00;;;;;;4866934;29;20060;-78
2022/07/07 09:58:54;;;;;;;3.10;1.52;;;31.80;94.10;;;;;;4869996;29;20045;-78
2022/07/07 10:01:25;;;;;;;4.75;1.63;;;31.80;92.80;;;;;;4869770;29;20052;-78
2022/07/07 10:04:00;;;;;;;3.83;1.90;;;31.80;93.40;;;;;;4871441;29;20056;-78
2022/07/07 10:06:29;;;;;;;2.85;1.35;;;31.80;93.70;;;;;;4870979;29;20053;-78
2022/07/07 10:09:00;;;;;;;3.58;1.58;;;31.90;92.10;;;;;;4870096;29;20140;-78
2022/07/07 10:11:39;;;;;;;4.63;1.65;;;32.10;92.80;;;;;;4869645;29;20053;-78
2022/07/07 10:14:13;;;;;;;4.07;1.40;;;32.20;92.70;;;;;;4877566;29;20064;-78
2022/07/07 10:16:43;;;;;;;2.85;1.60;;;32.30;92.10;;;;;;4865170;29;20071;-77
2022/07/07 10:19:14;;;;;;;3.28;1.27;;;32.40;91.40;;;;;;4870880;29;20061;-79
2022/07/07 10:21:47;;;;;;;8.93;1.55;;;32.50;90.20;;;;;;4870778;29;20081;-78
2022/07/07 10:24:22;;;;;;;3.33;1.42;;;32.60;90.00;;;;;;4869420;29;20416;-78
2022/07/07 10:26:52;;;;;;;4.93;1.17;;;32.60;88.80;;;;;;4868165;29;20045;-78
2022/07/07 10:29:36;;;;;;;4.63;1.17;;;32.60;88.20;;;;;;4885019;29;20064;-78
2022/07/07 10:32:06;;;;;;;3.97;1.17;;;32.80;86.30;;;;;;4868489;29;20071;-78
2022/07/07 10:34:37;;;;;;;2.47;1.30;;;32.80;86.30;;;;;;4870200;29;20052;-78
2022/07/07 10:37:07;;;;;;;4.63;1.85;;;32.90;86.40;;;;;;4883382;29;20081;-79
2022/07/07 10:39:40;;;;;;;2.75;1.50;;;33.00;87.30;;;;;;4869086;29;20063;-78
2022/07/07 10:43:06;;;;;;;6.15;1.83;;;33.00;86.20;;;;;;4876390;29;20045;-78
2022/07/07 10:45:35;;;;;;;1.23;1.10;;;33.00;86.30;;;;;;4787962;29;20693;-78
2022/07/07 10:48:07;;;;;;;2.00;1.00;;;33.20;86.50;;;;;;4856461;29;20065;-79
2022/07/07 10:50:38;;;;;;;2.97;1.38;;;33.30;85.90;;;;;;4870498;29;20186;-78
2022/07/07 10:53:30;;;;;;;1.38;1.27;;;33.40;86.20;;;;;;4871539;29;21204;-78
2022/07/07 10:55:59;;;;;;;4.90;1.52;;;33.60;86.20;;;;;;4886453;29;20113;-79
2022/07/07 10:58:56;;;;;;;2.83;1.27;;;33.70;85.40;;;;;;4866783;29;20060;-79
2022/07/07 11:01:27;;;;;;;3.28;1.25;;;33.80;85.90;;;;;;4871778;29;20465;-78
2022/07/07 11:03:56;;;;;;;3.05;1.15;;;33.70;85.10;;;;;;4873530;29;20504;-80
2022/07/07 11:06:26;;;;;;;3.22;1.33;;;33.50;84.60;;;;;;4872676;29;20041;-80
2022/07/07 11:09:00;;;;;;;5.65;1.48;;;33.70;85.30;;;;;;4872877;29;20071;-80
2022/07/07 11:11:29;;;;;;;6.68;1.45;;;33.80;84.40;;;;;;4872030;29;20087;-78
2022/07/07 11:14:10;;;;;;;1.83;1.23;;;33.90;84.30;;;;;;4869833;29;20066;-80
2022/07/07 11:16:39;;;;;;;2.03;1.05;;;34.20;85.10;;;;;;4871849;29;20105;-81
2022/07/07 11:19:10;;;;;;;3.13;1.33;;;34.40;83.60;;;;;;4871752;29;20516;-81
2022/07/07 11:21:46;;;;;;;3.95;1.63;;;34.30;83.60;;;;;;4854111;29;20052;-79
2022/07/07 11:24:18;;;;;;;4.25;1.42;;;34.40;85.00;;;;;;4872191;29;20053;-81
2022/07/07 11:26:55;;;;;;;1.65;1.20;;;34.50;84.50;;;;;;4888357;29;20056;-81
2022/07/07 11:29:24;;;;;;;3.92;1.58;;;34.60;84.40;;;;;;4872098;29;20635;-79
2022/07/07 11:32:03;;;;;;;2.22;1.20;;;34.90;83.10;;;;;;4873279;29;20049;-79
2022/07/07 11:34:46;;;;;;;1.70;1.30;;;34.80;83.80;;;;;;4870703;29;20064;-81
2022/07/07 11:37:22;;;;;;;4.22;1.50;;;34.90;84.00;;;;;;4855732;29;20180;-80
2022/07/07 11:39:51;;;;;;;2.25;1.33;;;34.80;84.40;;;;;;4873359;29;20119;-77
2022/07/07 11:42:19;;;;;;;2.72;1.08;;;34.70;83.30;;;;;;4872703;29;20617;-76
2022/07/07 11:44:48;;;;;;;2.60;1.40;;;34.70;82.90;;;;;;4886450;29;20064;-77
2022/07/07 11:47:17;;;;;;;1.70;1.35;;;34.70;82.80;;;;;;4871531;29;20041;-77
2022/07/07 11:49:47;;;;;;;2.63;1.25;;;34.70;83.20;;;;;;4884445;29;20132;-81
2022/07/07 11:52:16;;;;;;;2.15;1.38;;;34.60;84.80;;;;;;4872821;29;20045;-80
2022/07/07 11:54:48;;;;;;;2.70;1.52;;;34.50;85.00;;;;;;4856476;29;20060;-81
2022/07/07 11:57:28;;;;;;;3.13;1.23;;;34.40;86.10;;;;;;4886277;29;20112;-78
2022/07/07 12:00:09;;;;;;;4.80;1.70;;;34.30;86.10;;;;;;4872996;29;20049;-75
2022/07/07 12:02:42;;;;;;;2.95;1.50;;;34.30;86.00;;;;;;4866518;29;20045;-77
2022/07/07 12:05:11;;;;;;;2.42;1.70;;;34.20;86.90;;;;;;4887062;29;20528;-76
2022/07/07 12:07:43;;;;;;;2.22;1.65;;;34.10;87.90;;;;;;4855146;29;20056;-76
2022/07/07 12:10:24;;;;;;;3.08;1.95;;;34.10;88.20;;;;;;4863800;29;20057;-76
2022/07/07 12:12:57;;;;;;;2.83;1.70;;;34.10;88.20;;;;;;4872533;29;20113;-76
2022/07/07 12:15:29;;;;;;;5.07;1.92;;;34.00;87.70;;;;;;4872565;29;20049;-76
2022/07/07 12:17:58;;;;;;;4.53;2.08;;;33.90;88.60;;;;;;4871981;29;20400;-76
2022/07/07 12:20:26;;;;;;;7.90;3.30;;;33.80;91.90;;;;;;4856384;29;20056;-76
2022/07/07 12:22:58;;;;;;;4.47;2.90;;;33.50;96.70;;;;;;4869103;29;20053;-77
2022/07/07 12:25:29;;;;;;;6.35;3.10;;;33.10;96.70;;;;;;4852318;29;20056;-77
2022/07/07 12:28:09;;;;;;;5.78;2.92;;;32.90;96.70;;;;;;4871568;29;20063;-77
2022/07/07 12:30:49;;;;;;;7.40;3.85;;;32.80;96.70;;;;;;4872351;29;20048;-77
2022/07/07 12:33:25;;;;;;;4.55;3.05;;;32.70;96.70;;;;;;4886136;29;20051;-77
2022/07/07 12:35:59;;;;;;;6.90;3.30;;;32.60;96.70;;;;;;4855515;29;20570;-77
2022/07/07 12:38:37;;;;;;;5.47;3.85;;;32.50;96.70;;;;;;4874260;29;20071;-77
2022/07/07 12:41:07;;;;;;;6.60;3.92;;;32.50;96.70;;;;;;4873395;29;20076;-77
2022/07/07 12:43:36;;;;;;;5.10;3.00;;;32.60;96.70;;;;;;4873403;29;20108;-77
2022/07/07 12:46:11;;;;;;;5.53;3.15;;;32.70;96.70;;;;;;4867854;29;20523;-78
2022/07/07 12:48:47;;;;;;;7.03;3.85;;;32.90;96.70;;;;;;4874673;29;20053;-77
2022/07/07 12:51:17;;;;;;;6.45;4.20;;;33.10;96.70;;;;;;4870381;29;20037;-77
2022/07/07 12:53:45;;;;;;;7.90;3.80;;;33.20;96.70;;;;;;4872330;29;20416;-79
2022/07/07 12:56:15;;;;;;;5.80;3.83;;;33.50;96.70;;;;;;4872484;29;20060;-78
2022/07/07 12:58:46;;;;;;;8.98;4.35;;;33.80;96.70;;;;;;4872573;29;20591;-78
2022/07/07 13:01:17;;;;;;;8.13;3.55;;;34.00;96.70;;;;;;4870730;29;20067;-78
2022/07/07 13:03:48;;;;;;;4.93;3.25;;;34.20;96.70;;;;;;4872170;29;20041;-78